createdAt,value
2022-12-16T00:01:45.212Z,99.00
2022-12-16T00:04:15.014Z,98.90
2022-12-16T00:06:44.292Z,99.10
2022-12-16T00:09:13.448Z,99.20
2022-12-16T00:11:43.402Z,99.30
2022-12-16T00:14:12.634Z,99.20
2022-12-16T00:16:41.911Z,99.20
2022-12-16T00:19:14.289Z,99.20
2022-12-16T00:21:43.534Z,99.00
2022-12-16T00:24:12.751Z,99.00
2022-12-16T00:26:41.950Z,99.00
2022-12-16T00:29:12.262Z,98.90
2022-12-16T00:31:41.630Z,98.80
2022-12-16T00:34:10.874Z,98.70
2022-12-16T00:36:40.172Z,98.50
2022-12-16T00:39:09.406Z,98.40
2022-12-16T00:41:39.031Z,98.40
2022-12-16T00:44:08.491Z,98.40
2022-12-16T00:46:40.993Z,98.30
2022-12-16T00:49:10.261Z,98.30
2022-12-16T00:51:39.554Z,98.30
2022-12-16T00:54:08.744Z,98.20
2022-12-16T00:56:38.101Z,98.10
2022-12-16T00:59:07.299Z,98.10
2022-12-16T01:01:37.622Z,97.90
2022-12-16T01:04:07.385Z,97.90
2022-12-16T01:06:38.642Z,97.80
2022-12-16T01:09:07.876Z,97.80
2022-12-16T01:11:37.979Z,97.80
2022-12-16T01:14:07.316Z,97.70
2022-12-16T01:16:36.516Z,97.70
2022-12-16T01:19:06.215Z,97.60
2022-12-16T01:21:35.481Z,97.50
2022-12-16T01:24:05.085Z,97.30
2022-12-16T01:26:34.322Z,97.30
2022-12-16T01:29:03.915Z,97.40
2022-12-16T01:31:33.544Z,97.40
2022-12-16T01:34:02.834Z,97.40
2022-12-16T01:36:32.139Z,97.30
2022-12-16T01:39:02.037Z,97.30
2022-12-16T01:41:31.306Z,97.40
2022-12-16T01:44:23.626Z,97.40
2022-12-16T01:47:07.175Z,97.30
2022-12-16T01:49:48.345Z,97.30
2022-12-16T01:52:29.476Z,97.30
2022-12-16T01:55:17.227Z,97.20
2022-12-16T01:58:03.900Z,97.10
2022-12-16T02:00:33.106Z,96.80
2022-12-16T02:03:03.569Z,96.60
2022-12-16T02:05:36.302Z,96.50
2022-12-16T02:08:10.920Z,96.30
2022-12-16T02:10:46.186Z,95.80
2022-12-16T02:13:34.099Z,95.50
2022-12-16T02:16:41.207Z,95.40
2022-12-16T02:20:13.708Z,95.30
2022-12-16T02:22:42.828Z,95.30
2022-12-16T02:26:00.120Z,95.00
2022-12-16T02:28:40.957Z,94.90
2022-12-16T02:31:27.838Z,94.50
2022-12-16T02:34:11.952Z,94.10
2022-12-16T02:37:21.974Z,94.20
2022-12-16T02:40:02.388Z,94.20
2022-12-16T02:42:54.669Z,94.10
2022-12-16T02:45:32.017Z,93.70
2022-12-16T02:48:01.316Z,93.50
2022-12-16T02:50:53.067Z,93.50
2022-12-16T02:53:23.154Z,93.30
2022-12-16T02:56:08.366Z,93.20
2022-12-16T02:58:48.592Z,93.10
2022-12-16T03:01:29.571Z,93.00
2022-12-16T03:04:23.873Z,92.50
2022-12-16T03:06:56.630Z,92.70
2022-12-16T03:09:33.664Z,92.70
2022-12-16T03:12:08.894Z,92.20
2022-12-16T03:14:43.755Z,92.40
2022-12-16T03:17:17.294Z,92.10
2022-12-16T03:20:13.112Z,92.20
2022-12-16T03:22:47.914Z,92.00
2022-12-16T03:25:18.058Z,91.90
2022-12-16T03:28:11.231Z,91.90
2022-12-16T03:30:50.717Z,91.30
2022-12-16T03:33:39.228Z,91.20
2022-12-16T03:36:17.736Z,91.20
2022-12-16T03:38:48.280Z,91.10
2022-12-16T03:41:21.722Z,91.10
2022-12-16T03:43:51.635Z,90.40
2022-12-16T03:46:21.217Z,90.20
2022-12-16T03:48:53.284Z,90.10
2022-12-16T03:51:22.876Z,89.50
2022-12-16T03:53:52.065Z,89.80
2022-12-16T03:56:21.360Z,89.90
2022-12-16T03:58:52.223Z,90.10
2022-12-16T04:01:21.612Z,89.40
2022-12-16T04:03:51.685Z,88.70
2022-12-16T04:06:20.953Z,88.50
2022-12-16T04:08:50.394Z,88.70
2022-12-16T04:11:38.042Z,88.60
2022-12-16T04:14:25.425Z,88.50
2022-12-16T04:17:13.788Z,88.10
2022-12-16T04:20:04.100Z,87.50
2022-12-16T04:23:02.211Z,88.20
2022-12-16T04:25:37.564Z,87.50
2022-12-16T04:28:06.780Z,87.00
2022-12-16T04:30:36.389Z,87.10
2022-12-16T04:33:32.998Z,87.30
2022-12-16T04:36:21.175Z,87.90
2022-12-16T04:39:08.801Z,87.10
2022-12-16T04:41:55.992Z,86.30
2022-12-16T04:44:43.667Z,86.70
2022-12-16T04:47:31.386Z,85.90
2022-12-16T04:50:18.981Z,85.20
2022-12-16T04:53:09.866Z,84.90
2022-12-16T04:56:03.596Z,84.30
2022-12-16T04:58:51.554Z,83.80
2022-12-16T05:01:39.757Z,83.30
2022-12-16T05:04:26.938Z,83.50
2022-12-16T05:07:14.321Z,84.20
2022-12-16T05:10:01.645Z,82.60
2022-12-16T05:12:49.310Z,82.00
2022-12-16T05:15:38.630Z,81.60
2022-12-16T05:18:31.408Z,81.60
2022-12-16T05:21:40.748Z,80.90
2022-12-16T05:24:28.352Z,80.90
2022-12-16T05:27:15.670Z,80.00
2022-12-16T05:30:03.311Z,79.50
2022-12-16T05:32:50.908Z,79.00
2022-12-16T05:35:38.141Z,78.30
2022-12-16T05:38:25.427Z,78.40
2022-12-16T05:41:12.705Z,78.00
2022-12-16T05:44:00.438Z,78.70
2022-12-16T05:46:47.778Z,78.80
2022-12-16T05:49:35.482Z,77.40
2022-12-16T05:52:22.685Z,78.10
2022-12-16T05:55:10.298Z,77.50
2022-12-16T05:57:57.629Z,77.00
2022-12-16T06:00:45.296Z,76.80
2022-12-16T06:03:33.193Z,76.10
2022-12-16T06:06:21.077Z,76.50
2022-12-16T06:09:08.217Z,76.10
2022-12-16T06:11:56.101Z,76.40
2022-12-16T06:14:43.621Z,76.00
2022-12-16T06:17:30.742Z,76.60
2022-12-16T06:20:18.236Z,76.20
2022-12-16T06:23:14.669Z,75.90
2022-12-16T06:26:02.544Z,75.70
2022-12-16T06:28:50.488Z,75.10
2022-12-16T06:31:37.886Z,75.20
2022-12-16T06:34:25.503Z,75.00
2022-12-16T06:37:12.790Z,74.60
2022-12-16T06:40:00.290Z,75.20
2022-12-16T06:42:47.801Z,75.20
2022-12-16T06:45:38.265Z,74.80
2022-12-16T06:48:30.952Z,74.80
2022-12-16T06:51:18.649Z,75.20
2022-12-16T06:54:06.305Z,74.90
2022-12-16T06:56:53.634Z,75.40
2022-12-16T06:59:41.750Z,75.40
2022-12-16T07:02:31.078Z,75.70
2022-12-16T07:05:18.838Z,75.40
2022-12-16T07:08:11.171Z,74.60
2022-12-16T07:11:09.169Z,75.30
2022-12-16T07:14:02.933Z,74.60
2022-12-16T07:16:50.325Z,74.00
2022-12-16T07:19:38.035Z,73.60
2022-12-16T07:22:25.753Z,73.70
2022-12-16T07:25:13.075Z,74.20
2022-12-16T07:28:08.321Z,74.30
2022-12-16T07:31:00.375Z,74.30
2022-12-16T07:33:48.010Z,73.90
2022-12-16T07:36:35.453Z,73.80
2022-12-16T07:39:23.032Z,74.20
2022-12-16T07:42:11.092Z,73.70
2022-12-16T07:44:58.251Z,73.40
2022-12-16T07:47:45.905Z,74.00
2022-12-16T07:50:33.786Z,73.50
2022-12-16T07:53:22.290Z,73.60
2022-12-16T07:56:10.398Z,73.80
2022-12-16T07:58:57.540Z,74.60
2022-12-16T08:01:45.611Z,73.80
2022-12-16T08:04:32.715Z,74.30
2022-12-16T08:07:19.994Z,74.30
2022-12-16T08:10:07.547Z,73.40
2022-12-16T08:12:55.202Z,73.50
2022-12-16T08:15:42.308Z,74.00
2022-12-16T08:18:29.900Z,73.60
2022-12-16T08:21:17.441Z,73.70
2022-12-16T08:24:04.645Z,73.40
2022-12-16T08:26:51.744Z,73.60
2022-12-16T08:29:44.557Z,74.40
2022-12-16T08:32:34.404Z,74.40
2022-12-16T08:35:30.340Z,73.80
2022-12-16T08:38:18.407Z,73.40
2022-12-16T08:41:05.556Z,73.00
2022-12-16T08:43:56.287Z,72.80
2022-12-16T08:46:43.679Z,72.40
2022-12-16T08:49:31.281Z,73.00
2022-12-16T08:52:19.105Z,73.20
2022-12-16T08:55:06.411Z,73.40
2022-12-16T08:57:53.797Z,73.60
2022-12-16T09:00:43.514Z,73.40
2022-12-16T09:03:31.363Z,73.70
2022-12-16T09:06:21.675Z,73.00
2022-12-16T09:09:09.276Z,73.50
2022-12-16T09:11:57.137Z,73.20
2022-12-16T09:14:44.896Z,73.90
2022-12-16T09:17:32.449Z,73.10
2022-12-16T09:20:19.632Z,73.20
2022-12-16T09:23:07.012Z,72.60
2022-12-16T09:25:55.016Z,73.20
2022-12-16T09:28:43.875Z,73.70
2022-12-16T09:31:31.410Z,74.00
2022-12-16T09:34:18.959Z,74.10
2022-12-16T09:37:06.658Z,74.30
2022-12-16T09:39:53.803Z,74.10
2022-12-16T09:43:10.226Z,73.70
2022-12-16T09:46:25.312Z,74.20
2022-12-16T09:49:15.257Z,74.30
2022-12-16T09:52:05.232Z,74.30
2022-12-16T09:54:58.966Z,74.40
2022-12-16T09:57:51.371Z,74.50
2022-12-16T10:00:48.657Z,74.80
2022-12-16T10:03:53.835Z,75.10
2022-12-16T10:07:08.309Z,75.50
2022-12-16T10:10:34.656Z,75.70
2022-12-16T10:13:37.313Z,75.80
2022-12-16T10:16:48.658Z,76.10
2022-12-16T10:20:12.018Z,76.40
2022-12-16T10:23:17.799Z,76.80
2022-12-16T10:26:26.503Z,76.60
2022-12-16T10:29:32.374Z,77.30
2022-12-16T10:32:19.606Z,77.80
2022-12-16T10:35:08.196Z,77.80
2022-12-16T10:37:59.965Z,78.10
2022-12-16T10:40:52.061Z,78.40
2022-12-16T10:44:06.961Z,79.10
2022-12-16T10:46:55.742Z,79.30
2022-12-16T10:49:43.448Z,79.80
2022-12-16T10:52:33.469Z,80.10
2022-12-16T10:56:31.486Z,80.20
2022-12-16T10:59:26.315Z,80.20
2022-12-16T11:02:44.033Z,80.60
2022-12-16T11:05:54.456Z,80.90
2022-12-16T11:08:50.227Z,81.00
2022-12-16T11:11:46.896Z,81.80
2022-12-16T11:15:06.012Z,82.00
2022-12-16T11:17:58.178Z,82.10
2022-12-16T11:20:46.576Z,82.30
2022-12-16T11:23:45.310Z,82.70
2022-12-16T11:26:37.492Z,83.10
2022-12-16T11:29:36.473Z,83.60
2022-12-16T11:32:46.091Z,83.80
2022-12-16T11:35:40.177Z,84.20
2022-12-16T11:38:42.031Z,84.90
2022-12-16T11:41:43.688Z,85.10
2022-12-16T11:44:41.708Z,86.10
2022-12-16T11:48:10.502Z,85.80
2022-12-16T11:51:14.035Z,85.70
2022-12-16T11:54:29.382Z,86.20
2022-12-16T11:57:19.486Z,86.40
2022-12-16T12:00:20.880Z,86.70
2022-12-16T12:03:47.275Z,87.00
2022-12-16T12:07:05.532Z,87.40
2022-12-16T12:10:00.275Z,87.60
2022-12-16T12:13:21.657Z,87.50
2022-12-16T12:16:19.838Z,87.70
2022-12-16T12:19:43.775Z,88.10
2022-12-16T12:22:57.656Z,88.40
2022-12-16T12:26:27.509Z,88.60
2022-12-16T12:29:29.679Z,88.50
2022-12-16T12:32:42.514Z,88.80
2022-12-16T12:36:00.617Z,88.90
2022-12-16T12:39:03.311Z,89.40
2022-12-16T12:42:32.160Z,89.00
2022-12-16T12:46:00.485Z,88.70
2022-12-16T12:49:17.407Z,89.20
2022-12-16T12:52:28.612Z,90.00
2022-12-16T12:55:48.440Z,90.60
2022-12-16T12:58:42.078Z,90.30
2022-12-16T13:01:35.251Z,90.40
2022-12-16T13:04:37.773Z,90.30
2022-12-16T13:07:27.707Z,90.60
2022-12-16T13:10:49.385Z,91.00
2022-12-16T13:13:53.836Z,91.00
2022-12-16T13:17:09.472Z,91.20
2022-12-16T13:20:15.322Z,91.20
2022-12-16T13:23:08.994Z,91.30
2022-12-16T13:26:11.311Z,91.70
2022-12-16T13:29:03.135Z,91.70
2022-12-16T13:31:51.462Z,92.00
2022-12-16T13:34:47.217Z,92.30
2022-12-16T13:38:12.305Z,92.50
2022-12-16T13:41:46.934Z,92.60
2022-12-16T13:45:03.165Z,92.70
2022-12-16T13:48:00.368Z,92.70
2022-12-16T13:51:01.060Z,93.00
2022-12-16T13:54:11.082Z,93.20
2022-12-16T13:57:09.594Z,93.20
2022-12-16T14:00:01.284Z,93.40
2022-12-16T14:03:02.389Z,93.70
2022-12-16T14:05:55.995Z,93.60
2022-12-16T14:08:46.108Z,93.70
2022-12-16T14:12:07.615Z,93.80
2022-12-16T14:15:13.489Z,93.50
2022-12-16T14:18:21.671Z,93.70
2022-12-16T14:21:18.155Z,93.80
2022-12-16T14:24:43.971Z,93.10
2022-12-16T14:27:42.815Z,93.80
2022-12-16T14:30:43.979Z,93.80
2022-12-16T14:33:47.776Z,94.20
2022-12-16T14:36:49.707Z,94.10
2022-12-16T14:39:49.470Z,94.20
2022-12-16T14:42:42.065Z,94.40
2022-12-16T14:45:54.804Z,94.50
2022-12-16T14:48:53.493Z,94.60
2022-12-16T14:51:52.839Z,94.60
2022-12-16T14:54:56.112Z,94.60
2022-12-16T14:57:51.916Z,94.60
2022-12-16T15:00:44.459Z,94.50
2022-12-16T15:03:32.053Z,94.60
2022-12-16T15:06:25.678Z,94.50
2022-12-16T15:09:21.438Z,94.50
2022-12-16T15:12:15.070Z,94.50
2022-12-16T15:15:06.341Z,94.50
2022-12-16T15:18:16.499Z,94.40
2022-12-16T15:21:15.273Z,94.60
2022-12-16T15:24:05.332Z,94.60
2022-12-16T15:26:55.016Z,94.60
2022-12-16T15:29:58.101Z,94.50
2022-12-16T15:32:45.704Z,94.60
2022-12-16T15:35:56.482Z,94.60
2022-12-16T15:38:53.746Z,94.60
2022-12-16T15:41:59.896Z,94.80
2022-12-16T15:44:49.586Z,94.90
2022-12-16T15:47:56.795Z,94.90
2022-12-16T15:50:48.433Z,95.00
2022-12-16T15:53:49.598Z,95.20
2022-12-16T15:57:04.516Z,95.20
2022-12-16T15:59:57.567Z,95.20
2022-12-16T16:02:50.987Z,95.20
2022-12-16T16:05:44.327Z,95.10
2022-12-16T16:08:31.832Z,95.20
2022-12-16T16:11:19.231Z,95.20
2022-12-16T16:14:12.279Z,95.10
2022-12-16T16:17:01.762Z,95.40
2022-12-16T16:19:48.921Z,95.20
2022-12-16T16:22:38.205Z,95.20
2022-12-16T16:25:26.515Z,95.20
2022-12-16T16:28:14.178Z,95.10
2022-12-16T16:31:01.617Z,95.20
2022-12-16T16:33:49.098Z,95.10
2022-12-16T16:36:37.009Z,95.10
2022-12-16T16:39:24.588Z,95.20
2022-12-16T16:42:11.921Z,95.20
2022-12-16T16:44:59.286Z,95.10
2022-12-16T16:47:46.461Z,95.20
2022-12-16T16:50:36.784Z,95.20
2022-12-16T16:53:24.053Z,95.30
2022-12-16T16:56:19.724Z,95.30
2022-12-16T16:59:07.512Z,95.20
2022-12-16T17:01:55.318Z,95.30
2022-12-16T17:04:43.124Z,95.20
2022-12-16T17:07:30.567Z,95.30
2022-12-16T17:10:18.333Z,95.20
2022-12-16T17:13:05.696Z,95.20
2022-12-16T17:15:57.031Z,95.20
2022-12-16T17:18:49.007Z,95.20
2022-12-16T17:21:39.327Z,95.20
2022-12-16T17:24:26.941Z,95.30
2022-12-16T17:27:14.127Z,95.40
2022-12-16T17:30:01.768Z,95.50
2022-12-16T17:32:49.361Z,95.60
2022-12-16T17:35:36.773Z,95.70
2022-12-16T17:38:24.038Z,96.00
2022-12-16T17:41:14.327Z,95.80
2022-12-16T17:44:01.789Z,95.70
2022-12-16T17:47:08.997Z,95.90
2022-12-16T17:49:56.372Z,96.00
2022-12-16T17:52:43.673Z,96.20
2022-12-16T17:55:31.348Z,96.10
2022-12-16T17:58:19.302Z,96.40
2022-12-16T18:01:06.612Z,96.40
2022-12-16T18:03:54.451Z,96.60
2022-12-16T18:06:42.121Z,96.60
2022-12-16T18:09:29.376Z,96.70
2022-12-16T18:12:17.651Z,96.80
2022-12-16T18:15:05.033Z,96.80
2022-12-16T18:17:52.556Z,97.00
2022-12-16T18:20:39.685Z,97.00
2022-12-16T18:23:26.951Z,97.00
2022-12-16T18:26:24.613Z,97.10
2022-12-16T18:29:12.255Z,97.20
2022-12-16T18:31:59.536Z,97.20
2022-12-16T18:34:47.094Z,97.40
2022-12-16T18:37:35.347Z,97.40
2022-12-16T18:40:22.616Z,97.40
2022-12-16T18:43:09.930Z,97.50
2022-12-16T18:45:57.125Z,97.80
2022-12-16T18:48:44.585Z,97.50
2022-12-16T18:51:48.714Z,97.50
2022-12-16T18:54:36.451Z,97.60
2022-12-16T18:57:23.937Z,97.70
2022-12-16T19:00:11.237Z,97.70
2022-12-16T19:02:58.656Z,97.70
2022-12-16T19:05:46.328Z,97.70
2022-12-16T19:08:34.039Z,97.80
2022-12-16T19:11:21.962Z,97.80
2022-12-16T19:14:09.829Z,97.80
2022-12-16T19:16:57.458Z,97.90
2022-12-16T19:19:44.985Z,97.90
2022-12-16T19:22:32.456Z,98.00
2022-12-16T19:25:20.113Z,98.00
2022-12-16T19:28:07.749Z,98.10
2022-12-16T19:30:54.867Z,98.10
2022-12-16T19:33:44.156Z,98.10
2022-12-16T19:36:31.612Z,98.20
2022-12-16T19:39:19.037Z,98.20
2022-12-16T19:42:06.112Z,98.20
2022-12-16T19:44:53.741Z,98.20
2022-12-16T19:47:43.516Z,98.20
2022-12-16T19:50:31.172Z,98.20
2022-12-16T19:53:19.736Z,98.30
2022-12-16T19:56:06.878Z,98.50
2022-12-16T19:58:56.235Z,98.40
2022-12-16T20:01:44.066Z,98.60
2022-12-16T20:04:31.698Z,98.60
2022-12-16T20:07:23.159Z,98.50
2022-12-16T20:10:11.302Z,98.80
2022-12-16T20:12:59.357Z,98.60
2022-12-16T20:15:46.361Z,98.20
2022-12-16T20:18:33.629Z,98.60
2022-12-16T20:21:25.248Z,98.60
2022-12-16T20:24:12.861Z,98.70
2022-12-16T20:27:00.402Z,98.70
2022-12-16T20:29:47.638Z,98.60
2022-12-16T20:32:35.415Z,98.60
2022-12-16T20:35:33.774Z,98.80
2022-12-16T20:38:21.141Z,98.90
2022-12-16T20:41:19.021Z,98.90
2022-12-16T20:44:10.624Z,99.00
2022-12-16T20:46:58.459Z,98.90
2022-12-16T20:49:45.694Z,98.90
2022-12-16T20:52:33.317Z,98.90
2022-12-16T20:55:20.443Z,98.90
2022-12-16T20:58:07.825Z,98.90
2022-12-16T21:01:15.130Z,99.00
2022-12-16T21:04:02.675Z,99.00
2022-12-16T21:06:49.813Z,98.90
2022-12-16T21:09:37.006Z,98.90
2022-12-16T21:12:25.503Z,99.00
2022-12-16T21:15:12.725Z,99.00
2022-12-16T21:18:01.907Z,98.80
2022-12-16T21:20:49.169Z,99.00
2022-12-16T21:23:38.795Z,99.00
2022-12-16T21:26:26.716Z,99.00
2022-12-16T21:29:13.865Z,98.90
2022-12-16T21:32:01.023Z,98.90
2022-12-16T21:34:51.758Z,98.90
2022-12-16T21:37:39.361Z,98.90
2022-12-16T21:40:27.626Z,98.90
2022-12-16T21:43:15.361Z,98.90
2022-12-16T21:46:02.598Z,98.90
2022-12-16T21:48:49.800Z,98.80
2022-12-16T21:51:36.978Z,98.90
2022-12-16T21:54:24.293Z,98.90
2022-12-16T21:57:11.847Z,98.90
2022-12-16T21:59:59.050Z,99.00
2022-12-16T22:02:46.259Z,98.90
2022-12-16T22:05:33.451Z,99.00
2022-12-16T22:08:27.870Z,99.00
2022-12-16T22:11:17.325Z,99.00
2022-12-16T22:14:04.770Z,99.00
2022-12-16T22:16:52.119Z,99.10
2022-12-16T22:19:39.758Z,99.10
2022-12-16T22:22:26.953Z,99.10
2022-12-16T22:25:14.611Z,99.10
2022-12-16T22:28:02.059Z,99.30
2022-12-16T22:30:49.346Z,99.30
2022-12-16T22:33:36.986Z,99.30
2022-12-16T22:36:31.514Z,99.50
2022-12-16T22:39:18.791Z,99.50
2022-12-16T22:42:05.897Z,99.50
2022-12-16T22:44:56.507Z,99.50
2022-12-16T22:47:44.009Z,99.40
2022-12-16T22:50:31.637Z,99.50
2022-12-16T22:53:19.138Z,99.60
2022-12-16T22:56:15.237Z,99.60
2022-12-16T22:59:02.581Z,99.60
2022-12-16T23:01:49.892Z,99.60
2022-12-16T23:04:37.516Z,99.90
2022-12-16T23:07:25.166Z,99.70
2022-12-16T23:10:12.902Z,99.70
2022-12-16T23:13:00.210Z,99.80
2022-12-16T23:15:47.987Z,99.80
2022-12-16T23:18:35.452Z,99.80
2022-12-16T23:21:22.840Z,99.90
2022-12-16T23:24:13.282Z,99.90
2022-12-16T23:27:03.855Z,99.90
2022-12-16T23:29:51.512Z,99.90
2022-12-16T23:32:39.290Z,99.90
2022-12-16T23:35:27.100Z,99.90
2022-12-16T23:38:26.552Z,99.90
2022-12-16T23:41:18.682Z,99.90
2022-12-16T23:44:06.077Z,99.90
2022-12-16T23:46:53.492Z,99.90
2022-12-16T23:49:41.109Z,99.90
2022-12-16T23:52:28.365Z,99.90
2022-12-16T23:55:15.611Z,99.90
2022-12-16T23:58:13.835Z,99.90
